This is the latest recevied weather packets stored in our database for station/object K7SPS-10. If no packets are shown the sender has not sent any weather packets the latest 10 day(s).
| Time | Temp. | Humidity | Pressure | Rain* | Wind** | Luminosity | Snow |
|---|---|---|---|---|---|---|---|
| 1778312697 | 14.44° C | 43% | 1019.6 hPa | 0 mm | - | 0 W/m² | - |
| 1778312393 | 14.44° C | 42% | 1019.6 hPa | 0 mm | - | 0 W/m² | - |
| 1778312090 | 15° C | 42% | 1019.5 hPa | 0 mm | - | 0 W/m² | - |
| 1778311786 | 15° C | 41% | 1019.4 hPa | 0 mm | - | 0 W/m² | - |
| 1778311483 | 15° C | 41% | 1019.2 hPa | 0 mm | - | 0 W/m² | - |
| 1778311180 | 15° C | 41% | 1019 hPa | 0 mm | - | 0 W/m² | - |
| 1778310876 | 15.56° C | 40% | 1018.7 hPa | 0 mm | - | 0 W/m² | - |
| 1778310574 | 15.56° C | 39% | 1018.7 hPa | 0 mm | - | 0 W/m² | - |
| 1778310271 | 16.11° C | 37% | 1018.9 hPa | 0 mm | - | 0 W/m² | - |
| 1778309966 | 16.11° C | 36% | 1018.7 hPa | 0 mm | - | 0 W/m² | - |
| 1778309662 | 16.11° C | 37% | 1018.6 hPa | 0 mm | - | 0 W/m² | - |
| 1778309359 | 15.56° C | 39% | 1018.6 hPa | 0 mm | - | 0 W/m² | - |
| 1778309057 | 15.56° C | 38% | 1018.4 hPa | 0 mm | - | 0 W/m² | - |
| 1778308754 | 15.56° C | 38% | 1018.4 hPa | 0 mm | - | 0 W/m² | - |
| 1778308450 | 15.56° C | 38% | 1018.1 hPa | 0 mm | - | 0 W/m² | - |
| 1778308147 | 15.56° C | 39% | 1018.1 hPa | 0 mm | - | 0 W/m² | - |
| 1778307844 | 16.11° C | 39% | 1018.1 hPa | 0 mm | - | 0 W/m² | - |
| 1778307542 | 17.22° C | 34% | 1018 hPa | 0 mm | - | 0 W/m² | - |
| 1778307240 | 17.22° C | 33% | 1017.9 hPa | 0 mm | - | 0 W/m² | - |
| 1778306936 | 16.67° C | 34% | 1017.8 hPa | 0 mm | - | 0 W/m² | - |
| 1778306633 | 17.22° C | 34% | 1017.7 hPa | 0 mm | - | 0 W/m² | - |
| 1778306328 | 16.67° C | 35% | 1017.6 hPa | 0 mm | - | 0 W/m² | - |
| 1778306024 | 16.67° C | 37% | 1017.5 hPa | 0 mm | - | 0 W/m² | - |
| 1778305721 | 16.67° C | 38% | 1017.8 hPa | 0 mm | - | 0 W/m² | - |
| 1778305418 | 16.67° C | 38% | 1017.5 hPa | 0 mm | - | 0 W/m² | - |
* Rain latest hour (hover to see other rain measurements)
** Current wind speed in m/s (hover to see current wind gust speed)